sensor_id;sensor_type;location;lat;lon;timestamp;pressure;altitude;pressure_sealevel;temperature;humidity
36788;BME280;22738;45.560;9.434;2022-08-18T00:05:42;99588.75;;;23.02;100.00
36788;BME280;22738;45.560;9.434;2022-08-18T00:12:43;99601.75;;;23.04;100.00
36788;BME280;22738;45.560;9.434;2022-08-18T00:19:25;99587.81;;;23.10;100.00
36788;BME280;22738;45.560;9.434;2022-08-18T00:26:06;99576.88;;;23.13;100.00
36788;BME280;22738;45.560;9.434;2022-08-18T00:32:54;99557.00;;;23.02;100.00
36788;BME280;22738;45.560;9.434;2022-08-18T00:39:35;99571.69;;;23.05;100.00
36788;BME280;22738;45.560;9.434;2022-08-18T00:53:12;99565.75;;;23.03;100.00
36788;BME280;22738;45.560;9.434;2022-08-18T01:00:04;99572.44;;;22.99;100.00
36788;BME280;22738;45.560;9.434;2022-08-18T01:06:56;99582.00;;;23.00;100.00
36788;BME280;22738;45.560;9.434;2022-08-18T01:13:40;99562.38;;;23.09;100.00
36788;BME280;22738;45.560;9.434;2022-08-18T01:20:28;99549.75;;;22.90;100.00
36788;BME280;22738;45.560;9.434;2022-08-18T01:27:31;99539.53;;;22.87;100.00
36788;BME280;22738;45.560;9.434;2022-08-18T01:34:14;99553.09;;;22.84;100.00
36788;BME280;22738;45.560;9.434;2022-08-18T01:40:58;99512.97;;;23.09;100.00
36788;BME280;22738;45.560;9.434;2022-08-18T01:47:40;99495.75;;;22.99;100.00
36788;BME280;22738;45.560;9.434;2022-08-18T01:54:21;99507.44;;;22.90;100.00
36788;BME280;22738;45.560;9.434;2022-08-18T02:01:04;99512.63;;;22.83;100.00
36788;BME280;22738;45.560;9.434;2022-08-18T02:07:46;99515.47;;;22.82;100.00
36788;BME280;22738;45.560;9.434;2022-08-18T02:14:27;99518.72;;;22.84;100.00
36788;BME280;22738;45.560;9.434;2022-08-18T02:21:11;99493.03;;;22.78;100.00
36788;BME280;22738;45.560;9.434;2022-08-18T02:27:53;99451.50;;;22.72;100.00
36788;BME280;22738;45.560;9.434;2022-08-18T02:34:34;99466.16;;;22.74;100.00
36788;BME280;22738;45.560;9.434;2022-08-18T02:41:16;99471.06;;;22.92;100.00
36788;BME280;22738;45.560;9.434;2022-08-18T02:47:57;99469.53;;;22.83;100.00
36788;BME280;22738;45.560;9.434;2022-08-18T02:54:38;99448.31;;;22.76;100.00
36788;BME280;22738;45.560;9.434;2022-08-18T03:01:21;99494.03;;;22.77;100.00
36788;BME280;22738;45.560;9.434;2022-08-18T03:08:02;99493.41;;;22.75;100.00
36788;BME280;22738;45.560;9.434;2022-08-18T03:14:43;99468.53;;;22.69;100.00
36788;BME280;22738;45.560;9.434;2022-08-18T03:21:30;99460.06;;;22.74;100.00
36788;BME280;22738;45.560;9.434;2022-08-18T03:28:13;99437.06;;;22.74;100.00
36788;BME280;22738;45.560;9.434;2022-08-18T03:34:55;99414.50;;;22.72;100.00
36788;BME280;22738;45.560;9.434;2022-08-18T03:41:38;99368.03;;;22.62;100.00
36788;BME280;22738;45.560;9.434;2022-08-18T03:48:20;99341.44;;;22.49;100.00
36788;BME280;22738;45.560;9.434;2022-08-18T03:55:03;99335.78;;;22.52;100.00
36788;BME280;22738;45.560;9.434;2022-08-18T04:01:46;99332.88;;;22.47;100.00
36788;BME280;22738;45.560;9.434;2022-08-18T04:08:28;99353.47;;;22.52;100.00
36788;BME280;22738;45.560;9.434;2022-08-18T04:15:10;99350.88;;;22.58;100.00
36788;BME280;22738;45.560;9.434;2022-08-18T04:21:56;99386.34;;;22.64;100.00
36788;BME280;22738;45.560;9.434;2022-08-18T04:28:38;99420.97;;;22.69;100.00
36788;BME280;22738;45.560;9.434;2022-08-18T04:35:19;99449.84;;;22.70;100.00
36788;BME280;22738;45.560;9.434;2022-08-18T04:42:02;99494.31;;;22.82;100.00
36788;BME280;22738;45.560;9.434;2022-08-18T04:48:45;99497.09;;;22.95;100.00
36788;BME280;22738;45.560;9.434;2022-08-18T04:55:28;99511.22;;;23.02;100.00
36788;BME280;22738;45.560;9.434;2022-08-18T05:02:10;99528.19;;;22.93;100.00
36788;BME280;22738;45.560;9.434;2022-08-18T05:09:00;99541.53;;;22.85;100.00
36788;BME280;22738;45.560;9.434;2022-08-18T05:15:42;99609.34;;;22.78;100.00
36788;BME280;22738;45.560;9.434;2022-08-18T05:22:24;99574.78;;;22.64;100.00
36788;BME280;22738;45.560;9.434;2022-08-18T05:29:05;99593.31;;;22.56;100.00
36788;BME280;22738;45.560;9.434;2022-08-18T05:35:50;99578.09;;;22.58;100.00
36788;BME280;22738;45.560;9.434;2022-08-18T05:42:36;99581.19;;;22.47;100.00
36788;BME280;22738;45.560;9.434;2022-08-18T05:49:19;99559.94;;;22.63;100.00
36788;BME280;22738;45.560;9.434;2022-08-18T05:56:02;99564.63;;;22.53;100.00
36788;BME280;22738;45.560;9.434;2022-08-18T06:03:10;99549.41;;;22.41;100.00
36788;BME280;22738;45.560;9.434;2022-08-18T06:09:54;99539.91;;;22.32;100.00
36788;BME280;22738;45.560;9.434;2022-08-18T06:37:33;99384.09;;;21.51;100.00
36788;BME280;22738;45.560;9.434;2022-08-18T06:44:33;99384.72;;;21.53;100.00
36788;BME280;22738;45.560;9.434;2022-08-18T06:51:18;99369.09;;;21.66;100.00
36788;BME280;22738;45.560;9.434;2022-08-18T06:58:04;99308.25;;;21.53;100.00
36788;BME280;22738;45.560;9.434;2022-08-18T07:05:16;99255.22;;;21.62;100.00
36788;BME280;22738;45.560;9.434;2022-08-18T07:12:06;99244.50;;;21.78;100.00
36788;BME280;22738;45.560;9.434;2022-08-18T07:18:47;99308.31;;;21.96;100.00
36788;BME280;22738;45.560;9.434;2022-08-18T07:25:44;99388.06;;;22.42;100.00
36788;BME280;22738;45.560;9.434;2022-08-18T07:32:31;99429.53;;;22.27;100.00
36788;BME280;22738;45.560;9.434;2022-08-18T07:46:22;99442.91;;;22.69;100.00
36788;BME280;22738;45.560;9.434;2022-08-18T07:53:16;99408.84;;;22.75;100.00
36788;BME280;22738;45.560;9.434;2022-08-18T08:07:19;99413.13;;;22.97;100.00
36788;BME280;22738;45.560;9.434;2022-08-18T08:14:18;99416.44;;;22.99;100.00
36788;BME280;22738;45.560;9.434;2022-08-18T08:21:10;99412.72;;;22.93;100.00
36788;BME280;22738;45.560;9.434;2022-08-18T08:28:08;99410.47;;;22.76;100.00
36788;BME280;22738;45.560;9.434;2022-08-18T08:34:59;99408.00;;;22.74;100.00
36788;BME280;22738;45.560;9.434;2022-08-18T08:48:38;99427.63;;;22.50;100.00
36788;BME280;22738;45.560;9.434;2022-08-18T09:09:13;99385.47;;;22.28;100.00
36788;BME280;22738;45.560;9.434;2022-08-18T09:22:59;99375.91;;;22.12;100.00
36788;BME280;22738;45.560;9.434;2022-08-18T09:29:52;99303.25;;;22.01;100.00
36788;BME280;22738;45.560;9.434;2022-08-18T09:36:40;99283.44;;;21.91;100.00
36788;BME280;22738;45.560;9.434;2022-08-18T10:10:59;99455.75;;;21.77;100.00
36788;BME280;22738;45.560;9.434;2022-08-18T10:18:07;99468.38;;;21.67;100.00
36788;BME280;22738;45.560;9.434;2022-08-18T10:24:56;99453.19;;;21.69;100.00
36788;BME280;22738;45.560;9.434;2022-08-18T10:38:40;99415.41;;;21.68;100.00
36788;BME280;22738;45.560;9.434;2022-08-18T10:45:37;99415.88;;;21.72;100.00
36788;BME280;22738;45.560;9.434;2022-08-18T10:59:09;99497.63;;;21.80;100.00
36788;BME280;22738;45.560;9.434;2022-08-18T11:06:03;99530.59;;;21.84;100.00
36788;BME280;22738;45.560;9.434;2022-08-18T11:19:44;99485.31;;;21.95;100.00
36788;BME280;22738;45.560;9.434;2022-08-18T11:26:32;99460.56;;;21.96;100.00
36788;BME280;22738;45.560;9.434;2022-08-18T11:33:17;99441.69;;;21.99;100.00
36788;BME280;22738;45.560;9.434;2022-08-18T11:39:59;99411.97;;;22.05;100.00
36788;BME280;22738;45.560;9.434;2022-08-18T11:46:41;99348.59;;;22.05;100.00
36788;BME280;22738;45.560;9.434;2022-08-18T12:07:28;99293.53;;;22.52;100.00
36788;BME280;22738;45.560;9.434;2022-08-18T12:14:17;99364.44;;;22.85;100.00
36788;BME280;22738;45.560;9.434;2022-08-18T12:21:01;99376.78;;;23.62;100.00
36788;BME280;22738;45.560;9.434;2022-08-18T12:27:43;99338.00;;;23.82;100.00
36788;BME280;22738;45.560;9.434;2022-08-18T12:34:24;99354.59;;;23.97;100.00
36788;BME280;22738;45.560;9.434;2022-08-18T12:41:08;99347.38;;;23.78;100.00
36788;BME280;22738;45.560;9.434;2022-08-18T12:47:51;99384.06;;;23.60;100.00
36788;BME280;22738;45.560;9.434;2022-08-18T12:54:34;99391.78;;;23.34;100.00
36788;BME280;22738;45.560;9.434;2022-08-18T13:01:16;99407.00;;;23.32;100.00
36788;BME280;22738;45.560;9.434;2022-08-18T13:08:00;99409.94;;;23.37;100.00
36788;BME280;22738;45.560;9.434;2022-08-18T13:14:42;99432.91;;;23.58;100.00
36788;BME280;22738;45.560;9.434;2022-08-18T13:21:23;99436.88;;;23.47;100.00
36788;BME280;22738;45.560;9.434;2022-08-18T13:28:05;99449.47;;;23.45;100.00
36788;BME280;22738;45.560;9.434;2022-08-18T13:34:46;99449.53;;;23.52;100.00
36788;BME280;22738;45.560;9.434;2022-08-18T13:41:29;99452.94;;;23.67;100.00
36788;BME280;22738;45.560;9.434;2022-08-18T13:48:11;99467.31;;;23.85;100.00
36788;BME280;22738;45.560;9.434;2022-08-18T13:54:52;99465.34;;;23.66;100.00
36788;BME280;22738;45.560;9.434;2022-08-18T14:01:35;99464.31;;;23.67;100.00
36788;BME280;22738;45.560;9.434;2022-08-18T14:08:16;99459.53;;;23.77;100.00
36788;BME280;22738;45.560;9.434;2022-08-18T14:14:57;99449.09;;;23.97;100.00
36788;BME280;22738;45.560;9.434;2022-08-18T14:21:44;99461.53;;;24.24;100.00
36788;BME280;22738;45.560;9.434;2022-08-18T14:28:45;99463.72;;;23.93;100.00
36788;BME280;22738;45.560;9.434;2022-08-18T14:35:26;99466.59;;;23.49;100.00
36788;BME280;22738;45.560;9.434;2022-08-18T14:42:08;99480.75;;;23.35;100.00
36788;BME280;22738;45.560;9.434;2022-08-18T14:48:53;99471.53;;;23.52;100.00
36788;BME280;22738;45.560;9.434;2022-08-18T14:55:35;99455.31;;;23.83;100.00
36788;BME280;22738;45.560;9.434;2022-08-18T15:02:17;99454.34;;;24.12;100.00
36788;BME280;22738;45.560;9.434;2022-08-18T15:08:58;99442.00;;;24.25;100.00
36788;BME280;22738;45.560;9.434;2022-08-18T15:15:39;99425.19;;;24.46;100.00
36788;BME280;22738;45.560;9.434;2022-08-18T15:22:22;99408.34;;;24.60;100.00
36788;BME280;22738;45.560;9.434;2022-08-18T15:29:22;99386.81;;;24.76;100.00
36788;BME280;22738;45.560;9.434;2022-08-18T15:36:03;99401.84;;;24.69;100.00
36788;BME280;22738;45.560;9.434;2022-08-18T15:42:50;99410.00;;;24.74;100.00
36788;BME280;22738;45.560;9.434;2022-08-18T15:49:32;99386.06;;;24.48;100.00
36788;BME280;22738;45.560;9.434;2022-08-18T15:56:15;99393.09;;;24.28;100.00
36788;BME280;22738;45.560;9.434;2022-08-18T16:03:01;99375.28;;;24.15;100.00
36788;BME280;22738;45.560;9.434;2022-08-18T16:09:44;99377.88;;;24.43;100.00
36788;BME280;22738;45.560;9.434;2022-08-18T16:16:26;99385.84;;;24.49;100.00
36788;BME280;22738;45.560;9.434;2022-08-18T16:23:08;99371.59;;;24.50;100.00
36788;BME280;22738;45.560;9.434;2022-08-18T16:29:49;99382.00;;;24.52;100.00
36788;BME280;22738;45.560;9.434;2022-08-18T16:36:30;99386.72;;;24.16;100.00
36788;BME280;22738;45.560;9.434;2022-08-18T16:43:11;99400.16;;;23.86;100.00
36788;BME280;22738;45.560;9.434;2022-08-18T16:49:54;99410.16;;;23.63;100.00
36788;BME280;22738;45.560;9.434;2022-08-18T16:56:35;99389.50;;;23.52;100.00
36788;BME280;22738;45.560;9.434;2022-08-18T17:03:16;99371.13;;;23.44;100.00
36788;BME280;22738;45.560;9.434;2022-08-18T17:10:16;99349.97;;;23.44;100.00
36788;BME280;22738;45.560;9.434;2022-08-18T17:16:57;99350.72;;;23.38;100.00
36788;BME280;22738;45.560;9.434;2022-08-18T17:23:39;99325.13;;;23.24;100.00
36788;BME280;22738;45.560;9.434;2022-08-18T17:30:20;99310.41;;;23.15;100.00
36788;BME280;22738;45.560;9.434;2022-08-18T17:37:07;99276.53;;;23.04;100.00
36788;BME280;22738;45.560;9.434;2022-08-18T17:43:48;99257.41;;;23.02;100.00
36788;BME280;22738;45.560;9.434;2022-08-18T17:50:38;99255.03;;;22.86;100.00
36788;BME280;22738;45.560;9.434;2022-08-18T17:57:52;99284.81;;;22.73;100.00
36788;BME280;22738;45.560;9.434;2022-08-18T18:04:34;99324.56;;;22.65;100.00
36788;BME280;22738;45.560;9.434;2022-08-18T18:11:16;99308.63;;;22.58;100.00
36788;BME280;22738;45.560;9.434;2022-08-18T18:17:57;99332.59;;;22.57;100.00
36788;BME280;22738;45.560;9.434;2022-08-18T18:25:02;99338.53;;;22.44;100.00
36788;BME280;22738;45.560;9.434;2022-08-18T18:38:34;99367.41;;;22.31;100.00
36788;BME280;22738;45.560;9.434;2022-08-18T18:45:22;99364.25;;;22.21;100.00
36788;BME280;22738;45.560;9.434;2022-08-18T18:52:45;99324.66;;;22.07;100.00
36788;BME280;22738;45.560;9.434;2022-08-18T19:00:01;99327.97;;;21.94;100.00
36788;BME280;22738;45.560;9.434;2022-08-18T19:06:54;99332.00;;;21.82;100.00
36788;BME280;22738;45.560;9.434;2022-08-18T19:13:44;99361.13;;;21.74;100.00
36788;BME280;22738;45.560;9.434;2022-08-18T19:20:29;99373.13;;;21.62;100.00
36788;BME280;22738;45.560;9.434;2022-08-18T19:27:20;99379.47;;;21.53;100.00
36788;BME280;22738;45.560;9.434;2022-08-18T19:34:14;99369.34;;;21.42;100.00
36788;BME280;22738;45.560;9.434;2022-08-18T19:41:07;99369.50;;;21.40;100.00
36788;BME280;22738;45.560;9.434;2022-08-18T19:48:11;99390.50;;;21.33;100.00
36788;BME280;22738;45.560;9.434;2022-08-18T19:54:59;99380.47;;;21.29;100.00
36788;BME280;22738;45.560;9.434;2022-08-18T20:02:09;99394.38;;;21.23;100.00
36788;BME280;22738;45.560;9.434;2022-08-18T20:22:48;99413.44;;;21.02;100.00
36788;BME280;22738;45.560;9.434;2022-08-18T20:43:04;99448.63;;;20.79;100.00
36788;BME280;22738;45.560;9.434;2022-08-18T20:56:48;99438.91;;;20.79;100.00
36788;BME280;22738;45.560;9.434;2022-08-18T21:03:43;99424.41;;;20.83;100.00
36788;BME280;22738;45.560;9.434;2022-08-18T21:10:25;99420.44;;;20.87;100.00
36788;BME280;22738;45.560;9.434;2022-08-18T21:17:12;99420.44;;;20.87;100.00
36788;BME280;22738;45.560;9.434;2022-08-18T21:23:58;99406.09;;;20.90;100.00
36788;BME280;22738;45.560;9.434;2022-08-18T21:31:03;99414.34;;;20.87;100.00
36788;BME280;22738;45.560;9.434;2022-08-18T21:38:06;99425.34;;;20.90;100.00
36788;BME280;22738;45.560;9.434;2022-08-18T21:44:49;99420.44;;;20.87;100.00
36788;BME280;22738;45.560;9.434;2022-08-18T21:51:46;99418.78;;;20.86;100.00
36788;BME280;22738;45.560;9.434;2022-08-18T21:58:42;99413.59;;;20.78;100.00
36788;BME280;22738;45.560;9.434;2022-08-18T22:05:30;99405.69;;;20.78;100.00
36788;BME280;22738;45.560;9.434;2022-08-18T22:12:33;99389.22;;;20.76;100.00
36788;BME280;22738;45.560;9.434;2022-08-18T22:19:33;99368.88;;;20.62;100.00
36788;BME280;22738;45.560;9.434;2022-08-18T22:26:33;99367.22;;;20.61;100.00
36788;BME280;22738;45.560;9.434;2022-08-18T22:33:15;99373.31;;;20.61;100.00
36788;BME280;22738;45.560;9.434;2022-08-18T22:40:09;99371.53;;;20.62;100.00
36788;BME280;22738;45.560;9.434;2022-08-18T22:46:50;99342.19;;;20.65;100.00
36788;BME280;22738;45.560;9.434;2022-08-18T22:53:33;99319.81;;;20.61;100.00
36788;BME280;22738;45.560;9.434;2022-08-18T23:00:17;99325.09;;;20.61;100.00
36788;BME280;22738;45.560;9.434;2022-08-18T23:07:00;99314.91;;;20.58;100.00
36788;BME280;22738;45.560;9.434;2022-08-18T23:13:41;99322.16;;;20.56;100.00
36788;BME280;22738;45.560;9.434;2022-08-18T23:20:22;99330.75;;;20.50;100.00
36788;BME280;22738;45.560;9.434;2022-08-18T23:27:05;99335.03;;;20.51;100.00
36788;BME280;22738;45.560;9.434;2022-08-18T23:33:47;99314.91;;;20.58;100.00
36788;BME280;22738;45.560;9.434;2022-08-18T23:40:28;99276.44;;;20.49;100.00
36788;BME280;22738;45.560;9.434;2022-08-18T23:47:09;99257.09;;;20.42;100.00
36788;BME280;22738;45.560;9.434;2022-08-18T23:53:53;99250.81;;;20.43;100.00
